Air Navigation Services of Czech Republic
Airport: LKMT Updated:  29.04.2017 07:06:12  UTC
 METAR LKMT 29.04. 07:00 ...
METAR LKMT 290700Z 21006KT 9999 FEW015 07/03 Q1016 NOSIG RMK REG QNH 1013=
 TAF LKMT 29.04. 05:00 ...
TAF LKMT 290500Z 2906/3012 23004KT 9000 -RA OVC025      BECMG 2906/2908 23006KT 9999 SCT033      TEMPO 2909/2918 8000 SHRA FEW025TCU BKN030      BECMG 2921/2923 04004KT 3000 BR BKN005      TEMPO 2923/3005 1400 BR OVC003      BECMG 3005/3008 04010KT=